createdAt,value
2022-08-07T00:01:44.256Z,11.71
2022-08-07T00:04:46.188Z,11.70
2022-08-07T00:07:40.088Z,11.69
2022-08-07T00:10:31.561Z,11.68
2022-08-07T00:13:25.671Z,11.67
2022-08-07T00:16:17.651Z,11.68
2022-08-07T00:19:26.203Z,11.70
2022-08-07T00:22:35.567Z,11.73
2022-08-07T00:25:25.156Z,11.74
2022-08-07T00:28:15.481Z,11.72
2022-08-07T00:31:12.695Z,11.75
2022-08-07T00:34:04.211Z,11.74
2022-08-07T00:36:58.024Z,11.73
2022-08-07T00:39:54.337Z,11.73
2022-08-07T00:42:42.680Z,11.72
2022-08-07T00:45:31.158Z,11.71
2022-08-07T00:48:19.727Z,11.71
2022-08-07T00:51:19.401Z,11.69
2022-08-07T00:54:07.976Z,11.68
2022-08-07T00:57:00.388Z,11.67
2022-08-07T00:59:48.938Z,11.68
2022-08-07T01:02:37.210Z,11.68
2022-08-07T01:05:29.064Z,11.68
2022-08-07T01:08:17.772Z,11.67
2022-08-07T01:11:22.920Z,11.64
2022-08-07T01:14:21.273Z,11.63
2022-08-07T01:17:16.502Z,11.61
2022-08-07T01:20:17.116Z,11.60
2022-08-07T01:23:12.758Z,11.61
2022-08-07T01:26:02.745Z,11.61
2022-08-07T01:28:53.893Z,11.62
2022-08-07T01:31:51.215Z,11.63
2022-08-07T01:34:39.465Z,11.62
2022-08-07T01:37:33.901Z,11.60
2022-08-07T01:40:24.998Z,11.58
2022-08-07T01:43:17.818Z,11.57
2022-08-07T01:46:08.397Z,11.58
2022-08-07T01:49:03.219Z,11.56
2022-08-07T01:52:02.503Z,11.56
2022-08-07T01:54:56.601Z,11.55
2022-08-07T01:58:06.944Z,11.53
2022-08-07T02:01:09.725Z,11.50
2022-08-07T02:04:36.197Z,11.46
2022-08-07T02:07:44.695Z,11.44
2022-08-07T02:10:43.180Z,11.40
2022-08-07T02:13:57.930Z,11.39
2022-08-07T02:16:51.654Z,11.37
2022-08-07T02:20:06.593Z,11.37
2022-08-07T02:22:59.877Z,11.37
2022-08-07T02:26:30.735Z,11.38
2022-08-07T02:28:58.454Z,11.39
2022-08-07T02:31:49.752Z,11.41
2022-08-07T02:34:48.893Z,11.42
2022-08-07T02:37:44.097Z,11.46
2022-08-07T02:40:35.276Z,11.51
2022-08-07T02:43:25.116Z,11.54
2022-08-07T02:46:17.584Z,11.58
2022-08-07T02:49:07.544Z,11.61
2022-08-07T02:51:59.272Z,11.64
2022-08-07T02:54:49.580Z,11.65
2022-08-07T02:57:41.497Z,11.68
2022-08-07T03:00:39.084Z,11.72
2022-08-07T03:03:42.271Z,11.74
2022-08-07T03:06:40.056Z,11.77
2022-08-07T03:09:42.343Z,11.80
2022-08-07T03:12:34.770Z,11.83
2022-08-07T03:15:47.737Z,11.89
2022-08-07T03:18:36.455Z,11.94
2022-08-07T03:21:27.749Z,12.00
2022-08-07T03:24:18.961Z,12.05
2022-08-07T03:27:30.108Z,12.09
2022-08-07T03:30:24.307Z,12.13
2022-08-07T03:33:14.723Z,12.17
2022-08-07T03:36:03.384Z,12.22
2022-08-07T03:39:05.848Z,12.27
2022-08-07T03:41:58.514Z,12.33
2022-08-07T03:44:53.674Z,12.38
2022-08-07T03:47:51.116Z,12.44
2022-08-07T03:50:43.252Z,12.53
2022-08-07T03:54:32.814Z,12.61
2022-08-07T03:57:03.605Z,12.69
2022-08-07T04:00:01.660Z,12.76
2022-08-07T04:02:52.932Z,12.83
2022-08-07T04:05:50.850Z,12.87
2022-08-07T04:08:42.424Z,12.93
2022-08-07T04:12:23.991Z,13.02
2022-08-07T04:14:47.691Z,13.15
2022-08-07T04:18:30.964Z,13.28
2022-08-07T04:20:54.572Z,13.43
2022-08-07T04:24:03.612Z,13.54
2022-08-07T04:26:52.380Z,13.61
2022-08-07T04:30:01.113Z,13.66
2022-08-07T04:33:15.712Z,13.70
2022-08-07T04:36:09.093Z,13.75
2022-08-07T04:38:57.452Z,13.82
2022-08-07T04:41:50.894Z,13.89
2022-08-07T04:44:54.799Z,13.94
2022-08-07T04:48:05.999Z,13.90
2022-08-07T04:51:49.617Z,13.93
2022-08-07T04:58:09.901Z,13.89
2022-08-07T05:02:32.712Z,13.66
2022-08-07T05:05:53.605Z,13.62
2022-08-07T05:09:00.777Z,13.59
2022-08-07T05:11:57.536Z,13.65
2022-08-07T05:14:59.106Z,13.76
2022-08-07T05:18:06.226Z,14.01
2022-08-07T05:21:01.410Z,14.60
2022-08-07T05:24:06.834Z,15.62
2022-08-07T05:26:59.484Z,17.20
2022-08-07T05:29:52.074Z,18.78
2022-08-07T05:32:41.705Z,20.32
2022-08-07T05:35:41.754Z,21.82
2022-08-07T05:39:00.201Z,23.24
2022-08-07T05:42:01.664Z,24.56
2022-08-07T05:45:04.466Z,25.74
2022-08-07T05:48:05.901Z,26.74
2022-08-07T05:51:04.624Z,27.43
2022-08-07T05:54:12.816Z,28.04
2022-08-07T05:57:03.534Z,28.66
2022-08-07T05:59:57.615Z,29.31
2022-08-07T06:02:51.998Z,29.74
2022-08-07T06:05:48.857Z,29.83
2022-08-07T06:08:42.636Z,30.24
2022-08-07T06:11:34.782Z,30.73
2022-08-07T06:14:28.703Z,31.14
2022-08-07T06:17:22.277Z,31.61
2022-08-07T06:20:12.761Z,31.98
2022-08-07T06:23:46.465Z,32.05
2022-08-07T06:26:27.459Z,32.20
2022-08-07T06:29:17.600Z,32.09
2022-08-07T06:32:06.287Z,32.18
2022-08-07T06:34:55.353Z,32.46
2022-08-07T06:37:44.689Z,32.20
2022-08-07T06:40:50.174Z,31.46
2022-08-07T06:43:46.113Z,29.90
2022-08-07T06:46:40.841Z,30.30
2022-08-07T06:49:33.382Z,30.80
2022-08-07T06:52:45.194Z,31.43
2022-08-07T06:55:47.542Z,31.88
2022-08-07T06:58:37.609Z,32.51
2022-08-07T07:01:33.325Z,32.79
2022-08-07T07:04:34.033Z,32.95
2022-08-07T07:07:59.108Z,33.47
2022-08-07T07:10:34.741Z,34.15
2022-08-07T07:13:56.483Z,34.41
2022-08-07T07:16:51.023Z,33.36
2022-08-07T07:19:56.130Z,33.51
2022-08-07T07:24:08.377Z,33.78
2022-08-07T07:26:34.471Z,33.49
2022-08-07T07:29:55.756Z,32.51
2022-08-07T07:32:24.669Z,32.29
2022-08-07T07:35:14.463Z,32.98
2022-08-07T07:38:05.744Z,33.54
2022-08-07T07:41:02.851Z,34.18
2022-08-07T07:44:14.204Z,34.48
2022-08-07T07:47:14.149Z,33.42
2022-08-07T07:50:35.716Z,32.04
2022-08-07T07:53:23.155Z,31.22
2022-08-07T07:56:15.847Z,32.26
2022-08-07T07:59:06.549Z,33.03
2022-08-07T08:02:03.942Z,32.92
2022-08-07T08:04:56.424Z,31.40
2022-08-07T08:08:00.749Z,30.56
2022-08-07T08:10:51.598Z,30.26
2022-08-07T08:13:54.592Z,30.51
2022-08-07T08:16:50.259Z,29.55
2022-08-07T08:20:17.570Z,28.36
2022-08-07T08:23:10.381Z,28.21
2022-08-07T08:26:21.822Z,29.51
2022-08-07T08:29:17.204Z,30.80
2022-08-07T08:32:18.994Z,31.83
2022-08-07T08:35:42.940Z,32.65
2022-08-07T08:38:44.531Z,33.18
2022-08-07T08:42:01.353Z,31.71
2022-08-07T08:45:01.085Z,29.84
2022-08-07T08:48:18.798Z,28.14
2022-08-07T08:51:49.890Z,26.53
2022-08-07T08:54:48.391Z,25.38
2022-08-07T08:57:45.753Z,24.59
2022-08-07T09:00:48.349Z,24.29
2022-08-07T09:04:08.103Z,23.85
2022-08-07T09:07:25.384Z,25.09
2022-08-07T09:10:34.186Z,26.64
2022-08-07T09:14:01.784Z,27.63
2022-08-07T09:17:18.645Z,28.35
2022-08-07T09:20:35.298Z,29.13
2022-08-07T09:24:33.686Z,29.76
2022-08-07T09:27:30.317Z,31.42
2022-08-07T09:30:20.602Z,31.50
2022-08-07T09:33:57.013Z,31.57
2022-08-07T09:37:01.407Z,32.05
2022-08-07T09:40:06.237Z,32.93
2022-08-07T09:44:06.000Z,33.61
2022-08-07T09:47:49.711Z,33.88
2022-08-07T09:51:00.872Z,34.39
2022-08-07T09:53:57.050Z,32.81
2022-08-07T09:57:46.622Z,31.13
2022-08-07T10:00:52.108Z,29.31
2022-08-07T10:04:17.059Z,28.05
2022-08-07T10:08:09.704Z,26.68
2022-08-07T10:12:03.154Z,25.45
2022-08-07T10:14:54.977Z,24.21
2022-08-07T10:18:26.432Z,23.51
2022-08-07T10:22:16.101Z,22.81
2022-08-07T10:25:42.567Z,22.41
2022-08-07T10:28:41.732Z,22.22
2022-08-07T10:32:04.587Z,22.10
2022-08-07T10:35:55.090Z,22.14
2022-08-07T10:39:05.470Z,22.08
2022-08-07T10:42:38.987Z,22.22
2022-08-07T10:45:58.079Z,22.70
2022-08-07T10:49:15.947Z,24.27
2022-08-07T10:52:22.109Z,26.77
2022-08-07T10:55:53.533Z,28.68
2022-08-07T10:59:21.258Z,29.84
2022-08-07T11:03:03.939Z,30.31
2022-08-07T11:06:15.756Z,30.93
2022-08-07T11:10:07.979Z,30.79
2022-08-07T11:14:41.943Z,30.33
2022-08-07T11:16:48.000Z,30.24
2022-08-07T11:19:55.200Z,29.03
2022-08-07T11:23:36.506Z,27.98
2022-08-07T11:26:43.435Z,26.78
2022-08-07T11:29:53.875Z,26.95
2022-08-07T11:33:19.239Z,26.58
2022-08-07T11:37:03.007Z,26.15
2022-08-07T11:40:10.138Z,26.30
2022-08-07T11:43:41.711Z,26.18
2022-08-07T11:47:02.840Z,26.10
2022-08-07T11:50:44.751Z,26.02
2022-08-07T11:54:54.434Z,25.85
2022-08-07T11:58:16.085Z,25.75
2022-08-07T12:01:06.781Z,25.51
2022-08-07T12:04:37.915Z,25.58
2022-08-07T12:07:39.231Z,25.66
2022-08-07T12:10:49.263Z,25.76
2022-08-07T12:14:08.682Z,25.62
2022-08-07T12:17:07.158Z,25.46
2022-08-07T12:20:12.917Z,25.51
2022-08-07T12:24:07.615Z,25.58
2022-08-07T12:27:03.481Z,25.54
2022-08-07T12:30:07.471Z,25.33
2022-08-07T12:33:18.645Z,25.10
2022-08-07T12:36:11.024Z,24.96
2022-08-07T12:39:00.132Z,24.86
2022-08-07T12:41:51.840Z,24.41
2022-08-07T12:44:47.178Z,24.17
2022-08-07T12:48:28.500Z,23.95
2022-08-07T12:51:33.207Z,23.45
2022-08-07T12:55:16.371Z,23.05
2022-08-07T12:58:12.854Z,22.69
2022-08-07T13:01:06.486Z,22.42
2022-08-07T13:04:57.696Z,22.33
2022-08-07T13:08:32.762Z,22.29
2022-08-07T13:12:03.583Z,22.22
2022-08-07T13:15:31.619Z,22.23
2022-08-07T13:18:54.804Z,22.29
2022-08-07T13:22:31.649Z,22.44
2022-08-07T13:25:45.961Z,22.57
2022-08-07T13:28:59.046Z,22.82
2022-08-07T13:32:31.052Z,22.96
2022-08-07T13:36:00.626Z,23.15
2022-08-07T13:39:48.954Z,23.29
2022-08-07T13:42:37.582Z,23.21
2022-08-07T13:46:12.412Z,23.16
2022-08-07T13:48:51.979Z,23.15
2022-08-07T13:52:16.382Z,23.28
2022-08-07T13:55:00.617Z,23.24
2022-08-07T13:58:02.031Z,23.08
2022-08-07T14:00:54.775Z,22.97
2022-08-07T14:04:07.114Z,22.95
2022-08-07T14:06:55.403Z,22.87
2022-08-07T14:10:02.376Z,22.76
2022-08-07T14:13:01.471Z,22.52
2022-08-07T14:16:00.492Z,22.28
2022-08-07T14:18:57.311Z,22.15
2022-08-07T14:22:00.967Z,22.03
2022-08-07T14:24:53.611Z,21.84
2022-08-07T14:28:12.356Z,21.67
2022-08-07T14:30:58.440Z,21.52
2022-08-07T14:33:49.815Z,21.41
2022-08-07T14:36:39.285Z,21.30
2022-08-07T14:40:15.559Z,21.16
2022-08-07T14:45:51.621Z,20.89
2022-08-07T14:48:48.398Z,20.69
2022-08-07T14:54:49.719Z,20.38
2022-08-07T14:57:54.678Z,20.26
2022-08-07T15:00:51.548Z,20.14
2022-08-07T15:03:52.576Z,20.06
2022-08-07T15:06:48.970Z,20.02
2022-08-07T15:13:06.400Z,19.95
2022-08-07T15:20:31.500Z,19.65
2022-08-07T15:26:22.555Z,19.28
2022-08-07T15:30:06.467Z,19.17
2022-08-07T15:32:39.938Z,19.09
2022-08-07T15:38:58.928Z,19.04
2022-08-07T15:42:46.616Z,19.03
2022-08-07T15:45:55.467Z,19.03
2022-08-07T15:49:03.682Z,19.04
2022-08-07T15:54:48.439Z,19.01
2022-08-07T15:57:40.000Z,18.97
2022-08-07T16:00:44.315Z,18.94
2022-08-07T16:03:46.980Z,18.91
2022-08-07T16:07:04.752Z,18.87
2022-08-07T16:10:14.944Z,18.82
2022-08-07T16:13:59.301Z,18.75
2022-08-07T16:18:03.933Z,18.71
2022-08-07T16:22:03.301Z,18.70
2022-08-07T16:25:55.528Z,18.74
2022-08-07T16:30:07.090Z,18.66
2022-08-07T16:32:34.476Z,18.68
2022-08-07T16:35:56.902Z,18.59
2022-08-07T16:39:33.735Z,18.58
2022-08-07T16:42:58.117Z,18.48
2022-08-07T16:47:04.448Z,18.40
2022-08-07T16:50:28.441Z,18.34
2022-08-07T16:54:08.882Z,18.24
2022-08-07T16:58:01.752Z,18.09
2022-08-07T17:01:08.062Z,18.03
2022-08-07T17:04:24.689Z,18.05
2022-08-07T17:07:55.230Z,17.97
2022-08-07T17:10:54.512Z,17.92
2022-08-07T17:14:19.386Z,17.90
2022-08-07T17:17:44.060Z,17.88
2022-08-07T17:20:41.954Z,17.80
2022-08-07T17:23:54.125Z,17.78
2022-08-07T17:26:59.658Z,17.71
2022-08-07T17:30:16.192Z,17.66
2022-08-07T17:34:09.249Z,17.76
2022-08-07T17:36:57.952Z,17.78
2022-08-07T17:40:30.611Z,17.75
2022-08-07T17:44:01.431Z,17.66
2022-08-07T17:46:55.101Z,17.63
2022-08-07T17:49:56.952Z,17.63
2022-08-07T17:54:01.552Z,17.62
2022-08-07T17:56:36.528Z,17.55
2022-08-07T18:00:06.002Z,17.55
2022-08-07T18:03:18.478Z,17.62
2022-08-07T18:06:16.677Z,17.69
2022-08-07T18:10:04.410Z,17.75
2022-08-07T18:12:59.806Z,17.80
2022-08-07T18:16:09.320Z,17.79
2022-08-07T18:21:07.526Z,17.71
2022-08-07T18:22:47.679Z,17.59
2022-08-07T18:25:41.895Z,17.45
2022-08-07T18:30:06.173Z,17.35
2022-08-07T18:32:55.637Z,17.20
2022-08-07T18:36:54.410Z,17.08
2022-08-07T18:40:17.933Z,16.93
2022-08-07T18:44:00.681Z,16.79
2022-08-07T18:47:25.494Z,16.67
2022-08-07T18:50:49.568Z,16.57
2022-08-07T18:54:30.967Z,16.51
2022-08-07T18:57:33.489Z,16.43
2022-08-07T19:02:18.880Z,16.32
2022-08-07T19:04:57.855Z,16.29
2022-08-07T19:08:28.046Z,16.21
2022-08-07T19:11:36.639Z,16.11
2022-08-07T19:16:05.826Z,16.02
2022-08-07T19:18:45.080Z,15.88
2022-08-07T19:22:04.866Z,15.76
2022-08-07T19:24:54.118Z,15.62
2022-08-07T19:28:58.737Z,15.53
2022-08-07T19:31:37.312Z,15.45
2022-08-07T19:34:11.871Z,15.34
2022-08-07T19:37:10.035Z,15.23
2022-08-07T19:40:09.770Z,15.14
2022-08-07T19:42:57.559Z,15.08
2022-08-07T19:46:07.246Z,15.03
2022-08-07T19:49:17.792Z,14.94
2022-08-07T19:52:32.168Z,14.86
2022-08-07T19:55:24.188Z,14.80
2022-08-07T19:58:15.872Z,14.73
2022-08-07T20:01:04.071Z,14.65
2022-08-07T20:04:04.450Z,14.58
2022-08-07T20:06:56.645Z,14.55
2022-08-07T20:10:35.427Z,14.49
2022-08-07T20:13:05.876Z,14.40
2022-08-07T20:15:57.846Z,14.31
2022-08-07T20:18:49.165Z,14.26
2022-08-07T20:21:47.517Z,14.18
2022-08-07T20:24:38.681Z,14.12
2022-08-07T20:27:47.662Z,14.08
2022-08-07T20:30:46.865Z,14.01
2022-08-07T20:33:38.280Z,13.94
2022-08-07T20:36:31.495Z,13.88
2022-08-07T20:40:04.021Z,13.85
2022-08-07T20:42:56.227Z,13.77
2022-08-07T20:46:25.920Z,13.72
2022-08-07T20:49:59.006Z,13.64
2022-08-07T20:52:29.910Z,13.57
2022-08-07T20:55:23.852Z,13.52
2022-08-07T20:58:19.491Z,13.44
2022-08-07T21:01:19.416Z,13.40
2022-08-07T21:04:21.823Z,13.35
2022-08-07T21:07:14.579Z,13.29
2022-08-07T21:10:11.625Z,13.24
2022-08-07T21:13:05.212Z,13.19
2022-08-07T21:16:00.967Z,13.15
2022-08-07T21:18:51.275Z,13.11
2022-08-07T21:21:49.298Z,13.05
2022-08-07T21:25:29.150Z,13.01
2022-08-07T21:28:48.262Z,12.94
2022-08-07T21:32:47.763Z,12.90
2022-08-07T21:36:06.088Z,12.87
2022-08-07T21:38:55.527Z,12.83
2022-08-07T21:42:42.543Z,12.79
2022-08-07T21:46:09.225Z,12.75
2022-08-07T21:49:17.992Z,12.72
2022-08-07T21:52:44.421Z,12.69
2022-08-07T21:55:56.143Z,12.66
2022-08-07T21:59:04.626Z,12.61
2022-08-07T22:02:10.420Z,12.55
2022-08-07T22:05:04.034Z,12.50
2022-08-07T22:07:58.685Z,12.47
2022-08-07T22:10:58.258Z,12.47
2022-08-07T22:13:54.890Z,12.48
2022-08-07T22:16:56.548Z,12.47
2022-08-07T22:20:22.959Z,12.43
2022-08-07T22:23:26.657Z,12.41
2022-08-07T22:26:30.555Z,12.38
2022-08-07T22:29:54.825Z,12.44
2022-08-07T22:33:15.335Z,12.47
2022-08-07T22:36:34.362Z,12.51
2022-08-07T22:39:52.473Z,12.58
2022-08-07T22:42:44.932Z,12.66
2022-08-07T22:46:40.932Z,12.71
2022-08-07T22:49:54.178Z,12.77
2022-08-07T22:54:07.643Z,12.83
2022-08-07T22:57:04.000Z,12.89
2022-08-07T23:00:14.907Z,12.94
2022-08-07T23:03:29.041Z,12.99
2022-08-07T23:06:57.975Z,13.05
2022-08-07T23:10:36.413Z,13.10
2022-08-07T23:14:16.491Z,13.15
2022-08-07T23:17:29.779Z,13.20
2022-08-07T23:21:02.886Z,13.26
2022-08-07T23:24:45.431Z,13.32
2022-08-07T23:28:28.477Z,13.36
2022-08-07T23:32:49.621Z,13.38
2022-08-07T23:35:16.783Z,13.41
2022-08-07T23:38:45.285Z,13.44
2022-08-07T23:42:05.107Z,13.48
2022-08-07T23:45:33.488Z,13.52
2022-08-07T23:48:50.600Z,13.54
2022-08-07T23:53:00.113Z,13.55
2022-08-07T23:55:05.547Z,13.56
2022-08-07T23:58:18.783Z,13.56
